sensor_id;sensor_type;location;lat;lon;timestamp;P1;durP1;ratioP1;P2;durP2;ratioP2
46757;SDS011;32509;47.750;-3.396;2024-01-30T03:21:11;1.23;;;1.13;;
46757;SDS011;32509;47.750;-3.396;2024-01-30T15:58:50;2.10;;;0.70;;
46757;SDS011;32509;47.750;-3.396;2024-01-30T16:01:17;2.75;;;0.70;;
46757;SDS011;32509;47.750;-3.396;2024-01-30T16:03:43;3.25;;;0.88;;
46757;SDS011;32509;47.750;-3.396;2024-01-30T16:06:13;3.83;;;0.80;;
46757;SDS011;32509;47.750;-3.396;2024-01-30T16:08:40;1.85;;;1.10;;
46757;SDS011;32509;47.750;-3.396;2024-01-30T16:11:07;3.90;;;1.02;;
46757;SDS011;32509;47.750;-3.396;2024-01-30T16:13:34;1.83;;;1.10;;
46757;SDS011;32509;47.750;-3.396;2024-01-30T16:16:05;3.45;;;0.85;;
46757;SDS011;32509;47.750;-3.396;2024-01-30T16:18:31;4.07;;;0.95;;
46757;SDS011;32509;47.750;-3.396;2024-01-30T16:20:58;2.03;;;0.90;;
46757;SDS011;32509;47.750;-3.396;2024-01-30T16:23:24;2.58;;;1.00;;
46757;SDS011;32509;47.750;-3.396;2024-01-30T16:25:52;2.40;;;1.00;;
46757;SDS011;32509;47.750;-3.396;2024-01-30T16:28:18;3.65;;;1.13;;
46757;SDS011;32509;47.750;-3.396;2024-01-30T16:30:44;2.08;;;1.00;;
46757;SDS011;32509;47.750;-3.396;2024-01-30T16:33:10;2.45;;;1.10;;
46757;SDS011;32509;47.750;-3.396;2024-01-30T16:35:36;1.20;;;0.70;;
46757;SDS011;32509;47.750;-3.396;2024-01-30T16:38:02;2.10;;;1.20;;
46757;SDS011;32509;47.750;-3.396;2024-01-30T16:40:29;1.63;;;1.40;;
46757;SDS011;32509;47.750;-3.396;2024-01-30T16:42:55;1.85;;;1.25;;
46757;SDS011;32509;47.750;-3.396;2024-01-30T16:45:21;3.28;;;1.27;;
46757;SDS011;32509;47.750;-3.396;2024-01-30T16:47:47;5.15;;;1.23;;
46757;SDS011;32509;47.750;-3.396;2024-01-30T16:50:13;2.78;;;1.00;;
46757;SDS011;32509;47.750;-3.396;2024-01-30T16:52:39;3.08;;;1.27;;
46757;SDS011;32509;47.750;-3.396;2024-01-30T16:55:05;4.60;;;1.40;;
46757;SDS011;32509;47.750;-3.396;2024-01-30T16:57:31;3.08;;;1.73;;
46757;SDS011;32509;47.750;-3.396;2024-01-30T16:59:57;5.15;;;1.58;;
46757;SDS011;32509;47.750;-3.396;2024-01-30T17:02:23;6.68;;;2.10;;
46757;SDS011;32509;47.750;-3.396;2024-01-30T17:04:49;3.33;;;2.00;;
46757;SDS011;32509;47.750;-3.396;2024-01-30T17:07:16;3.17;;;1.77;;
46757;SDS011;32509;47.750;-3.396;2024-01-30T17:09:42;5.60;;;2.55;;
46757;SDS011;32509;47.750;-3.396;2024-01-30T17:12:08;6.88;;;3.53;;
46757;SDS011;32509;47.750;-3.396;2024-01-30T17:14:34;8.32;;;4.22;;
46757;SDS011;32509;47.750;-3.396;2024-01-30T17:17:04;12.55;;;5.63;;
46757;SDS011;32509;47.750;-3.396;2024-01-30T17:19:30;13.55;;;7.53;;
46757;SDS011;32509;47.750;-3.396;2024-01-30T17:21:56;8.57;;;5.57;;
46757;SDS011;32509;47.750;-3.396;2024-01-30T17:24:22;10.93;;;6.70;;
46757;SDS011;32509;47.750;-3.396;2024-01-30T17:26:48;12.85;;;9.52;;
46757;SDS011;32509;47.750;-3.396;2024-01-30T17:29:15;28.65;;;18.98;;
46757;SDS011;32509;47.750;-3.396;2024-01-30T17:31:41;30.27;;;19.42;;
46757;SDS011;32509;47.750;-3.396;2024-01-30T17:34:10;23.35;;;16.58;;
46757;SDS011;32509;47.750;-3.396;2024-01-30T17:36:36;17.40;;;13.63;;
46757;SDS011;32509;47.750;-3.396;2024-01-30T17:39:02;22.48;;;15.48;;
46757;SDS011;32509;47.750;-3.396;2024-01-30T17:41:30;20.92;;;14.57;;
46757;SDS011;32509;47.750;-3.396;2024-01-30T17:43:57;17.25;;;11.32;;
46757;SDS011;32509;47.750;-3.396;2024-01-30T17:46:23;19.95;;;12.10;;
46757;SDS011;32509;47.750;-3.396;2024-01-30T17:48:49;12.50;;;9.55;;
46757;SDS011;32509;47.750;-3.396;2024-01-30T17:51:15;10.75;;;8.65;;
46757;SDS011;32509;47.750;-3.396;2024-01-30T17:53:41;8.82;;;5.70;;
46757;SDS011;32509;47.750;-3.396;2024-01-30T17:56:08;10.05;;;8.65;;
46757;SDS011;32509;47.750;-3.396;2024-01-30T17:58:36;11.65;;;8.25;;
46757;SDS011;32509;47.750;-3.396;2024-01-30T18:01:02;11.20;;;7.95;;
46757;SDS011;32509;47.750;-3.396;2024-01-30T18:03:29;12.35;;;7.60;;
46757;SDS011;32509;47.750;-3.396;2024-01-30T18:05:55;11.15;;;7.63;;
46757;SDS011;32509;47.750;-3.396;2024-01-30T18:08:21;8.50;;;7.55;;
46757;SDS011;32509;47.750;-3.396;2024-01-30T18:10:50;13.68;;;10.13;;
46757;SDS011;32509;47.750;-3.396;2024-01-30T18:13:16;14.38;;;11.13;;
46757;SDS011;32509;47.750;-3.396;2024-01-30T18:15:43;13.20;;;11.73;;
46757;SDS011;32509;47.750;-3.396;2024-01-30T18:18:09;17.80;;;11.25;;
46757;SDS011;32509;47.750;-3.396;2024-01-30T18:20:37;16.25;;;11.82;;
46757;SDS011;32509;47.750;-3.396;2024-01-30T18:23:03;16.23;;;11.57;;
46757;SDS011;32509;47.750;-3.396;2024-01-30T18:25:29;13.90;;;10.10;;
46757;SDS011;32509;47.750;-3.396;2024-01-30T18:27:55;12.70;;;10.50;;
46757;SDS011;32509;47.750;-3.396;2024-01-30T18:30:21;9.13;;;7.38;;
46757;SDS011;32509;47.750;-3.396;2024-01-30T18:32:47;13.60;;;9.27;;
46757;SDS011;32509;47.750;-3.396;2024-01-30T18:35:14;10.18;;;7.43;;
46757;SDS011;32509;47.750;-3.396;2024-01-30T18:37:40;8.68;;;6.30;;
46757;SDS011;32509;47.750;-3.396;2024-01-30T18:40:06;9.00;;;7.43;;
46757;SDS011;32509;47.750;-3.396;2024-01-30T18:42:33;11.00;;;6.93;;
46757;SDS011;32509;47.750;-3.396;2024-01-30T18:44:59;11.40;;;6.07;;
46757;SDS011;32509;47.750;-3.396;2024-01-30T18:47:27;8.05;;;6.65;;
46757;SDS011;32509;47.750;-3.396;2024-01-30T18:49:53;13.68;;;7.43;;
46757;SDS011;32509;47.750;-3.396;2024-01-30T18:52:20;12.23;;;7.90;;
46757;SDS011;32509;47.750;-3.396;2024-01-30T18:54:46;13.43;;;8.15;;
46757;SDS011;32509;47.750;-3.396;2024-01-30T18:57:12;12.18;;;8.30;;
46757;SDS011;32509;47.750;-3.396;2024-01-30T18:59:39;8.57;;;7.82;;
46757;SDS011;32509;47.750;-3.396;2024-01-30T19:02:05;14.68;;;10.15;;
46757;SDS011;32509;47.750;-3.396;2024-01-30T19:04:32;16.15;;;11.57;;
46757;SDS011;32509;47.750;-3.396;2024-01-30T19:07:01;11.95;;;10.73;;
46757;SDS011;32509;47.750;-3.396;2024-01-30T19:09:28;17.73;;;11.40;;
46757;SDS011;32509;47.750;-3.396;2024-01-30T19:11:54;17.33;;;11.55;;
46757;SDS011;32509;47.750;-3.396;2024-01-30T19:14:20;12.90;;;11.27;;
46757;SDS011;32509;47.750;-3.396;2024-01-30T19:16:46;14.07;;;10.00;;
46757;SDS011;32509;47.750;-3.396;2024-01-30T19:19:12;11.82;;;8.75;;
46757;SDS011;32509;47.750;-3.396;2024-01-30T19:21:38;14.85;;;11.18;;
46757;SDS011;32509;47.750;-3.396;2024-01-30T19:24:05;13.32;;;10.20;;
46757;SDS011;32509;47.750;-3.396;2024-01-30T19:26:32;14.73;;;11.80;;
46757;SDS011;32509;47.750;-3.396;2024-01-30T19:28:58;15.77;;;11.10;;
46757;SDS011;32509;47.750;-3.396;2024-01-30T19:31:24;18.27;;;12.15;;
46757;SDS011;32509;47.750;-3.396;2024-01-30T19:33:50;16.05;;;12.38;;
46757;SDS011;32509;47.750;-3.396;2024-01-30T19:36:16;15.93;;;11.52;;
46757;SDS011;32509;47.750;-3.396;2024-01-30T19:38:42;16.65;;;11.10;;
46757;SDS011;32509;47.750;-3.396;2024-01-30T19:41:12;19.60;;;11.43;;
46757;SDS011;32509;47.750;-3.396;2024-01-30T19:43:38;15.88;;;12.00;;
46757;SDS011;32509;47.750;-3.396;2024-01-30T19:46:04;12.85;;;11.02;;
46757;SDS011;32509;47.750;-3.396;2024-01-30T19:48:33;22.88;;;12.90;;
46757;SDS011;32509;47.750;-3.396;2024-01-30T19:51:00;15.48;;;10.98;;
46757;SDS011;32509;47.750;-3.396;2024-01-30T19:53:26;18.20;;;11.52;;
46757;SDS011;32509;47.750;-3.396;2024-01-30T19:55:52;13.50;;;10.73;;
46757;SDS011;32509;47.750;-3.396;2024-01-30T19:58:18;14.27;;;10.80;;
46757;SDS011;32509;47.750;-3.396;2024-01-30T20:00:44;19.25;;;11.25;;
46757;SDS011;32509;47.750;-3.396;2024-01-30T20:03:11;17.83;;;11.63;;
46757;SDS011;32509;47.750;-3.396;2024-01-30T20:05:38;15.40;;;11.85;;
46757;SDS011;32509;47.750;-3.396;2024-01-30T20:08:04;17.48;;;13.13;;
46757;SDS011;32509;47.750;-3.396;2024-01-30T20:10:30;19.90;;;13.70;;
46757;SDS011;32509;47.750;-3.396;2024-01-30T20:12:56;15.13;;;12.50;;
46757;SDS011;32509;47.750;-3.396;2024-01-30T20:15:22;15.93;;;12.45;;
46757;SDS011;32509;47.750;-3.396;2024-01-30T20:17:48;16.90;;;11.75;;
46757;SDS011;32509;47.750;-3.396;2024-01-30T20:20:14;14.35;;;11.10;;
46757;SDS011;32509;47.750;-3.396;2024-01-30T20:22:43;17.33;;;10.88;;
46757;SDS011;32509;47.750;-3.396;2024-01-30T20:25:09;15.07;;;11.55;;
46757;SDS011;32509;47.750;-3.396;2024-01-30T20:27:37;16.35;;;12.27;;
46757;SDS011;32509;47.750;-3.396;2024-01-30T20:30:04;15.75;;;13.00;;
46757;SDS011;32509;47.750;-3.396;2024-01-30T20:35:03;17.88;;;12.45;;
46757;SDS011;32509;47.750;-3.396;2024-01-30T20:37:33;20.05;;;14.10;;
46757;SDS011;32509;47.750;-3.396;2024-01-30T20:40:00;18.08;;;12.85;;
46757;SDS011;32509;47.750;-3.396;2024-01-30T20:42:26;16.65;;;13.57;;
46757;SDS011;32509;47.750;-3.396;2024-01-30T20:44:52;16.90;;;12.55;;
46757;SDS011;32509;47.750;-3.396;2024-01-30T20:47:18;15.65;;;13.80;;
46757;SDS011;32509;47.750;-3.396;2024-01-30T20:49:44;17.80;;;13.68;;
46757;SDS011;32509;47.750;-3.396;2024-01-30T20:52:10;14.23;;;12.50;;
46757;SDS011;32509;47.750;-3.396;2024-01-30T20:54:36;19.05;;;12.93;;
46757;SDS011;32509;47.750;-3.396;2024-01-30T20:57:02;17.42;;;12.82;;
46757;SDS011;32509;47.750;-3.396;2024-01-30T20:59:28;16.45;;;12.32;;
46757;SDS011;32509;47.750;-3.396;2024-01-30T21:01:54;15.77;;;12.25;;
46757;SDS011;32509;47.750;-3.396;2024-01-30T21:04:20;15.68;;;13.00;;
46757;SDS011;32509;47.750;-3.396;2024-01-30T21:06:47;14.80;;;11.80;;
46757;SDS011;32509;47.750;-3.396;2024-01-30T21:09:13;18.13;;;12.85;;
46757;SDS011;32509;47.750;-3.396;2024-01-30T21:11:39;13.90;;;12.50;;
46757;SDS011;32509;47.750;-3.396;2024-01-30T21:14:05;18.25;;;13.00;;
46757;SDS011;32509;47.750;-3.396;2024-01-30T21:16:31;15.80;;;13.45;;
46757;SDS011;32509;47.750;-3.396;2024-01-30T21:18:57;16.13;;;13.50;;
46757;SDS011;32509;47.750;-3.396;2024-01-30T21:21:23;18.92;;;13.23;;
46757;SDS011;32509;47.750;-3.396;2024-01-30T21:23:49;19.08;;;12.90;;
46757;SDS011;32509;47.750;-3.396;2024-01-30T21:26:15;17.42;;;13.65;;
46757;SDS011;32509;47.750;-3.396;2024-01-30T21:28:41;16.55;;;13.30;;
46757;SDS011;32509;47.750;-3.396;2024-01-30T21:31:08;21.60;;;13.70;;
46757;SDS011;32509;47.750;-3.396;2024-01-30T21:33:34;15.13;;;13.60;;
46757;SDS011;32509;47.750;-3.396;2024-01-30T21:36:00;16.02;;;12.68;;
46757;SDS011;32509;47.750;-3.396;2024-01-30T21:38:27;18.25;;;13.50;;
46757;SDS011;32509;47.750;-3.396;2024-01-30T21:40:53;17.05;;;13.52;;
46757;SDS011;32509;47.750;-3.396;2024-01-30T21:43:19;17.05;;;13.63;;
46757;SDS011;32509;47.750;-3.396;2024-01-30T21:45:45;19.70;;;14.57;;
46757;SDS011;32509;47.750;-3.396;2024-01-30T21:48:11;18.23;;;14.43;;
46757;SDS011;32509;47.750;-3.396;2024-01-30T21:50:37;22.80;;;16.67;;
46757;SDS011;32509;47.750;-3.396;2024-01-30T21:53:03;22.40;;;18.35;;
46757;SDS011;32509;47.750;-3.396;2024-01-30T21:55:29;22.45;;;16.42;;
46757;SDS011;32509;47.750;-3.396;2024-01-30T21:57:55;17.85;;;15.82;;
46757;SDS011;32509;47.750;-3.396;2024-01-30T22:00:21;20.20;;;15.88;;
46757;SDS011;32509;47.750;-3.396;2024-01-30T22:02:47;18.00;;;15.52;;
46757;SDS011;32509;47.750;-3.396;2024-01-30T22:05:14;18.38;;;13.57;;
46757;SDS011;32509;47.750;-3.396;2024-01-30T22:07:40;17.58;;;14.13;;
46757;SDS011;32509;47.750;-3.396;2024-01-30T22:10:07;17.73;;;13.82;;
46757;SDS011;32509;47.750;-3.396;2024-01-30T22:12:33;16.40;;;13.57;;
46757;SDS011;32509;47.750;-3.396;2024-01-30T22:14:59;14.25;;;12.88;;
46757;SDS011;32509;47.750;-3.396;2024-01-30T22:17:26;14.95;;;12.40;;
46757;SDS011;32509;47.750;-3.396;2024-01-30T22:19:52;18.98;;;13.40;;
46757;SDS011;32509;47.750;-3.396;2024-01-30T22:22:18;16.30;;;14.15;;
46757;SDS011;32509;47.750;-3.396;2024-01-30T22:24:44;14.50;;;11.15;;
46757;SDS011;32509;47.750;-3.396;2024-01-30T22:27:11;13.68;;;12.23;;
46757;SDS011;32509;47.750;-3.396;2024-01-30T22:29:37;18.33;;;11.20;;
46757;SDS011;32509;47.750;-3.396;2024-01-30T22:32:03;13.25;;;10.05;;
46757;SDS011;32509;47.750;-3.396;2024-01-30T22:34:31;17.15;;;11.52;;
46757;SDS011;32509;47.750;-3.396;2024-01-30T22:36:57;14.48;;;11.80;;
46757;SDS011;32509;47.750;-3.396;2024-01-30T22:39:23;13.15;;;11.75;;
46757;SDS011;32509;47.750;-3.396;2024-01-30T22:41:49;13.82;;;10.82;;
46757;SDS011;32509;47.750;-3.396;2024-01-30T22:44:15;13.60;;;10.10;;
46757;SDS011;32509;47.750;-3.396;2024-01-30T22:46:41;10.88;;;9.77;;
46757;SDS011;32509;47.750;-3.396;2024-01-30T22:49:07;14.02;;;9.82;;
46757;SDS011;32509;47.750;-3.396;2024-01-30T22:51:34;12.02;;;9.38;;
46757;SDS011;32509;47.750;-3.396;2024-01-30T22:54:00;12.25;;;8.38;;
46757;SDS011;32509;47.750;-3.396;2024-01-30T22:56:26;11.57;;;9.13;;
46757;SDS011;32509;47.750;-3.396;2024-01-30T22:58:52;11.80;;;9.43;;
46757;SDS011;32509;47.750;-3.396;2024-01-30T23:01:18;13.32;;;8.10;;
46757;SDS011;32509;47.750;-3.396;2024-01-30T23:03:44;9.38;;;8.35;;
46757;SDS011;32509;47.750;-3.396;2024-01-30T23:06:10;14.90;;;7.97;;
46757;SDS011;32509;47.750;-3.396;2024-01-30T23:08:36;11.68;;;8.98;;
46757;SDS011;32509;47.750;-3.396;2024-01-30T23:11:02;14.65;;;9.05;;
46757;SDS011;32509;47.750;-3.396;2024-01-30T23:13:28;11.23;;;8.43;;
46757;SDS011;32509;47.750;-3.396;2024-01-30T23:15:55;10.63;;;8.30;;
46757;SDS011;32509;47.750;-3.396;2024-01-30T23:18:21;14.35;;;9.57;;
46757;SDS011;32509;47.750;-3.396;2024-01-30T23:20:47;13.68;;;9.70;;
46757;SDS011;32509;47.750;-3.396;2024-01-30T23:23:13;10.20;;;8.85;;
46757;SDS011;32509;47.750;-3.396;2024-01-30T23:25:39;11.15;;;8.73;;
46757;SDS011;32509;47.750;-3.396;2024-01-30T23:28:05;14.40;;;9.13;;
46757;SDS011;32509;47.750;-3.396;2024-01-30T23:30:31;10.93;;;8.88;;
46757;SDS011;32509;47.750;-3.396;2024-01-30T23:32:57;12.02;;;9.10;;
46757;SDS011;32509;47.750;-3.396;2024-01-30T23:35:24;11.20;;;7.95;;
46757;SDS011;32509;47.750;-3.396;2024-01-30T23:37:50;11.38;;;8.27;;
46757;SDS011;32509;47.750;-3.396;2024-01-30T23:40:16;12.82;;;8.25;;
46757;SDS011;32509;47.750;-3.396;2024-01-30T23:42:42;9.85;;;8.73;;
46757;SDS011;32509;47.750;-3.396;2024-01-30T23:45:08;14.77;;;8.55;;
46757;SDS011;32509;47.750;-3.396;2024-01-30T23:47:35;11.20;;;9.02;;
46757;SDS011;32509;47.750;-3.396;2024-01-30T23:50:01;14.40;;;10.18;;
46757;SDS011;32509;47.750;-3.396;2024-01-30T23:52:28;16.23;;;9.68;;
46757;SDS011;32509;47.750;-3.396;2024-01-30T23:54:54;16.30;;;12.38;;
46757;SDS011;32509;47.750;-3.396;2024-01-30T23:57:20;13.48;;;11.50;;
46757;SDS011;32509;47.750;-3.396;2024-01-30T23:59:47;14.20;;;11.55;;
